• Join FlightAware (Why Join?)
  • Login
  • US Flag 
07:51AM EST


 

Airport Tracker/Info


-or-


 

Live Flight TrackerFlight Track Log ✈ CTL15 ✈ 20-Apr-2012 ✈ KMGY - KBKL

Flight Track Log - Related Links

Times and Time Zones

All times are in EDT time to prevent confusion due to time zone crossing. See the CTL15 flight status page for this flight to view local times or setup timezone preferences in your user account.

Time Position Orientation Groundspeed Altitude Reporting Facility
EDT Latitude Longitude Course Direction KTS MPH feet Rate Location/Type
08:37PM 39.5886 -84.2064 72° East 135 155 1,700  Level Indianapolis Center
08:37PM 39.5992 -84.1633 46° Northeast 152 175 2,700 1,020 Climbing Indianapolis Center
08:39PM 39.6306 -84.1206 45° Northeast 145 167 3,800 960 Climbing Indianapolis Center
08:40PM 39.6619 -84.0803 44° Northeast 145 167 4,900 1,020 Climbing Indianapolis Center
08:40PM 39.6831 -84.0533 49° Northeast 143 165 5,700 840 Climbing Indianapolis Center
08:42PM 39.7186 -83.9997 43° Northeast 156 180 6,700 720 Climbing Indianapolis Center
08:43PM 39.7500 -83.9619 47° Northeast 154 177 7,300 600 Climbing Indianapolis Center
08:44PM 39.7731 -83.9297 45° Northeast 153 176 7,800 480 Climbing Indianapolis Center
08:45PM 39.8086 -83.8839 45° Northeast 159 183 8,300 480 Climbing Indianapolis Center
08:46PM 39.8422 -83.8408 45° Northeast 161 185 8,900 240 Climbing Indianapolis Center
08:47PM 39.8778 -83.7950 42° Northeast 189 217 8,900  Level Indianapolis Center
08:48PM 39.9194 -83.7464 46° Northeast 195 224 8,900  Level Indianapolis Center
08:49PM 39.9572 -83.6950 42° Northeast 193 222 8,900  Level Indianapolis Center
08:50PM 40.0008 -83.6439 43° Northeast 200 230 9,000  Climbing Indianapolis Center
08:51PM 40.0406 -83.5950 45° Northeast 197 227 8,900 -60 Descending Indianapolis Center
08:52PM 40.0761 -83.5489 43° Northeast 196 226 8,900  Level Indianapolis Center
08:53PM 40.1094 -83.5081 46° Northeast 196 226 8,900  Level Indianapolis Center
08:54PM 40.1508 -83.4511 43° Northeast 194 223 9,000  Climbing Indianapolis Center
08:55PM 40.1925 -83.3994 43° Northeast 196 226 8,900 -60 Descending Indianapolis Center
08:56PM 40.2342 -83.3478 44° Northeast 199 229 8,900  Level Indianapolis Center
08:57PM 40.2819 -83.2878 46° Northeast 200 230 9,000  Climbing Indianapolis Center
08:59PM 40.3650 -83.1744 46° Northeast 238 274 9,000  Level Cleveland Center
09:00PM 40.4036 -83.1217 45° Northeast 214 246 9,000  Level Cleveland Center
09:01PM 40.4444 -83.0686 45° Northeast 201 231 9,000  Level Cleveland Center
09:02PM 40.4831 -83.0181 42° Northeast 201 231 9,000  Level Cleveland Center
09:03PM 40.5236 -82.9703 42° Northeast 195 224 9,000  Level Cleveland Center
09:04PM 40.5664 -82.9200 45° Northeast 195 224 9,100  Climbing Cleveland Center
09:05PM 40.6050 -82.8694 43° Northeast 202 232 9,100  Level Cleveland Center
09:06PM 40.6456 -82.8189 44° Northeast 196 226 9,100 -60 Level Cleveland Center
09:07PM 40.6839 -82.7708 43° Northeast 196 226 9,000 -60 Descending Cleveland Center
09:08PM 40.7247 -82.7203 44° Northeast 196 226 9,000  Level Cleveland Center
09:09PM 40.7586 -82.6775 42° Northeast 196 226 9,000  Level Cleveland Center
09:10PM 40.7950 -82.6347 47° Northeast 198 228 9,100  Climbing Cleveland Center
09:11PM 40.8314 -82.5836 45° Northeast 199 229 9,000 -60 Descending Cleveland Center
09:12PM 40.8719 -82.5300 42° Northeast 199 229 9,000  Level Cleveland Center
09:13PM 40.9122 -82.4817 44° Northeast 201 231 9,000  Level Cleveland Center
09:14PM 40.9528 -82.4306 47° Northeast 202 232 9,100  Climbing Cleveland Center
09:15PM 40.9889 -82.3794 45° Northeast 202 232 9,000 -60 Descending Cleveland Center
09:16PM 41.0294 -82.3256 44° Northeast 204 235 9,000  Level Cleveland Center
09:17PM 41.0825 -82.2581 46° Northeast 196 226 9,000  Level Cleveland Center
09:18PM 41.1144 -82.2147 46° Northeast 204 235 9,100  Climbing Cleveland Center
09:19PM 41.1592 -82.1525 44° Northeast 205 236 9,100  Level Cleveland Center
09:20PM 41.2058 -82.0928 44° Northeast 208 239 9,100 -60 Level Cleveland Center
09:21PM 41.2375 -82.0522 47° Northeast 208 239 9,000 -540 Descending Cleveland Center
09:22PM 41.2800 -81.9922 43° Northeast 220 253 8,200 -1,200 Descending Cleveland Center
09:23PM 41.3331 -81.9272 44° Northeast 241 277 6,600 -1,080 Descending Cleveland Center
09:24PM 41.3775 -81.8700 44° Northeast 217 250 6,100 -360 Descending Cleveland Center
09:25PM 41.4133 -81.8236 North 191 220 5,900 -780 Descending Cleveland Center
09:26PM 41.4697 -81.8219 359° North 196 226 4,600 -1,380 Descending Cleveland Center
09:27PM 41.5156 -81.8228 53° Northeast 185 213 3,300 -1,440 Descending Cleveland Center
09:28PM 41.5389 -81.7814 131° Southeast 199 229 1,800 -900 Descending Cleveland Center
09:29PM 41.5100 -81.7367 95° East 148 170 1,400 -540 Descending Cleveland Center
09:30PM 41.5083 -81.7089 95° East 121 139 900 -660 Descending Cleveland Center